createdAt,value
2023-03-23T16:02:23.522Z,37.97
2023-03-23T16:07:25.065Z,37.45
2023-03-23T16:12:23.951Z,37.52
2023-03-23T16:17:24.274Z,38.84
2023-03-23T16:22:23.100Z,39.48
2023-03-23T16:27:23.741Z,40.67
2023-03-23T16:32:24.428Z,41.75
2023-03-23T16:37:25.952Z,42.93
2023-03-23T16:42:24.855Z,43.39
2023-03-23T16:47:25.676Z,44.17
2023-03-23T16:52:24.545Z,44.92
2023-03-23T16:57:23.494Z,45.83
2023-03-23T17:02:22.205Z,46.52
2023-03-23T17:07:22.377Z,47.79
2023-03-23T17:12:22.280Z,47.99
2023-03-23T17:17:22.406Z,48.66
2023-03-23T17:22:22.754Z,49.02
2023-03-23T17:27:23.051Z,49.38
2023-03-23T17:32:29.690Z,50.04
2023-03-23T17:37:29.901Z,50.00
2023-03-23T17:42:29.097Z,50.39
2023-03-23T17:47:28.126Z,51.04
2023-03-23T17:52:27.542Z,51.20
2023-03-23T17:57:30.691Z,57.01
2023-03-23T18:02:29.550Z,53.03
2023-03-23T18:07:29.180Z,52.78
2023-03-23T18:12:30.422Z,52.89
2023-03-23T18:17:29.286Z,52.96
2023-03-23T18:22:28.075Z,53.38
2023-03-23T18:27:27.254Z,54.78
2023-03-23T18:32:29.658Z,54.66
2023-03-23T18:37:28.610Z,55.11
2023-03-23T18:42:28.052Z,54.94
2023-03-23T18:47:35.629Z,55.24
2023-03-23T18:52:34.512Z,55.17
2023-03-23T18:57:33.259Z,55.43
2023-03-23T19:02:33.640Z,55.48
2023-03-23T19:07:32.794Z,55.61
2023-03-23T19:12:32.155Z,55.56
2023-03-23T19:17:30.975Z,55.56
2023-03-23T19:22:31.417Z,56.21
2023-03-23T19:27:31.367Z,56.51
2023-03-23T19:32:30.513Z,56.47
2023-03-23T19:37:34.511Z,56.88
2023-03-23T19:42:35.547Z,56.86
2023-03-23T19:47:34.736Z,57.33
2023-03-23T19:52:33.502Z,58.46
2023-03-23T19:57:32.666Z,58.82
2023-03-23T20:02:35.399Z,59.04
2023-03-23T20:07:35.073Z,58.62
2023-03-23T20:12:33.988Z,58.52
2023-03-23T20:17:34.424Z,58.13
2023-03-23T20:22:33.269Z,58.26
2023-03-23T20:27:32.415Z,58.10
2023-03-23T20:32:40.825Z,58.31
2023-03-23T20:37:41.195Z,58.33
2023-03-23T20:42:44.000Z,58.40
2023-03-23T20:47:44.082Z,58.07
2023-03-23T20:52:42.772Z,58.78
2023-03-23T20:57:42.267Z,59.19
2023-03-23T21:02:42.333Z,59.01
2023-03-23T21:07:42.953Z,59.56
2023-03-23T21:12:41.682Z,59.63
2023-03-23T21:17:40.692Z,59.33
2023-03-23T21:22:39.653Z,59.11
2023-03-23T21:27:39.876Z,59.01
2023-03-23T21:32:38.641Z,59.17
2023-03-23T21:37:37.889Z,59.32
2023-03-23T21:42:36.571Z,59.39
2023-03-23T21:47:37.872Z,59.84
2023-03-23T21:52:37.228Z,59.71
2023-03-23T21:57:37.072Z,60.27
2023-03-23T22:02:46.759Z,60.09
2023-03-23T22:07:46.666Z,60.74
2023-03-23T22:12:45.786Z,60.49
2023-03-23T22:17:46.324Z,60.54
2023-03-23T22:22:45.278Z,60.64
2023-03-23T22:27:44.990Z,60.09
2023-03-23T22:32:45.378Z,59.74
2023-03-23T22:37:44.344Z,59.60
2023-03-23T22:42:43.284Z,60.24
2023-03-23T22:47:42.198Z,60.14
2023-03-23T22:52:42.552Z,60.26
2023-03-23T22:57:41.529Z,60.33
2023-03-23T23:02:40.594Z,60.57
2023-03-23T23:07:40.254Z,61.36
2023-03-23T23:12:42.544Z,61.47
2023-03-23T23:17:41.643Z,61.98
2023-03-23T23:22:43.677Z,61.84
2023-03-23T23:27:44.737Z,61.49
2023-03-23T23:32:44.824Z,61.08
2023-03-23T23:37:43.744Z,61.42
2023-03-23T23:42:46.425Z,61.13
2023-03-23T23:47:45.832Z,60.93
2023-03-23T23:52:45.291Z,60.73
2023-03-23T23:57:46.542Z,61.12
